createdAt,value
2022-11-02T00:00:42.192Z,97451.47
2022-11-02T00:01:44.787Z,97456.31
2022-11-02T00:02:46.763Z,97461.34
2022-11-02T00:03:48.946Z,97455.91
2022-11-02T00:04:50.755Z,97456.69
2022-11-02T00:05:52.567Z,97451.47
2022-11-02T00:06:54.419Z,97460.34
2022-11-02T00:07:56.234Z,97452.88
2022-11-02T00:08:58.029Z,97452.50
2022-11-02T00:09:59.845Z,97455.13
2022-11-02T00:11:01.914Z,97448.25
2022-11-02T00:12:03.799Z,97449.88
2022-11-02T00:13:06.065Z,97448.66
2022-11-02T00:14:08.370Z,97447.44
2022-11-02T00:15:10.458Z,97446.63
2022-11-02T00:16:14.926Z,97444.81
2022-11-02T00:17:16.813Z,97443.81
2022-11-02T00:18:18.772Z,97449.06
2022-11-02T00:19:20.558Z,97440.19
2022-11-02T00:20:22.390Z,97442.78
2022-11-02T00:21:25.593Z,97445.41
2022-11-02T00:22:27.493Z,97440.59
2022-11-02T00:23:29.922Z,97433.75
2022-11-02T00:24:33.987Z,97443.41
2022-11-02T00:25:38.173Z,97445.84
2022-11-02T00:26:40.131Z,97449.25
2022-11-02T00:27:42.879Z,97449.47
2022-11-02T00:28:45.044Z,97455.94
2022-11-02T00:29:46.850Z,97455.94
2022-11-02T00:30:48.713Z,97454.09
2022-11-02T00:31:51.149Z,97447.03
2022-11-02T00:32:52.991Z,97451.47
2022-11-02T00:33:54.825Z,97452.28
2022-11-02T00:34:56.650Z,97449.06
2022-11-02T00:35:58.952Z,97450.28
2022-11-02T00:37:00.865Z,97447.66
2022-11-02T00:38:03.066Z,97451.50
2022-11-02T00:39:05.314Z,97443.84
2022-11-02T00:40:07.423Z,97437.56
2022-11-02T00:41:09.250Z,97446.25
2022-11-02T00:42:11.565Z,97443.63
2022-11-02T00:43:13.419Z,97440.81
2022-11-02T00:44:15.281Z,97446.47
2022-11-02T00:45:17.676Z,97444.06
2022-11-02T00:46:20.493Z,97443.66
2022-11-02T00:47:22.487Z,97449.09
2022-11-02T00:48:24.369Z,97453.09
2022-11-02T00:49:26.210Z,97459.19
2022-11-02T00:50:27.944Z,97454.72
2022-11-02T00:51:29.738Z,97458.94
2022-11-02T00:52:31.941Z,97456.56
2022-11-02T00:53:33.747Z,97457.16
2022-11-02T00:54:35.750Z,97457.94
2022-11-02T00:55:37.558Z,97455.53
2022-11-02T00:56:39.489Z,97454.72
2022-11-02T00:57:41.713Z,97451.31
2022-11-02T00:58:43.526Z,97460.78
2022-11-02T00:59:45.320Z,97455.13
2022-11-02T01:00:48.139Z,97459.38
2022-11-02T01:01:50.140Z,97458.34
2022-11-02T01:02:53.943Z,97457.75
2022-11-02T01:03:58.929Z,97457.16
2022-11-02T01:05:00.911Z,97466.63
2022-11-02T01:06:12.888Z,97456.75
2022-11-02T01:07:14.752Z,97455.72
2022-11-02T01:08:16.580Z,97459.19
2022-11-02T01:09:18.479Z,97460.56
2022-11-02T01:10:20.319Z,97457.16
2022-11-02T01:11:24.019Z,97462.59
2022-11-02T01:12:25.926Z,97467.03
2022-11-02T01:13:27.697Z,97458.97
2022-11-02T01:14:29.543Z,97459.75
2022-11-02T01:15:31.313Z,97462.97
2022-11-02T01:16:33.311Z,97463.22
2022-11-02T01:17:35.348Z,97459.56
2022-11-02T01:18:37.155Z,97456.75
2022-11-02T01:19:39.991Z,97456.75
2022-11-02T01:20:41.832Z,97456.75
2022-11-02T01:21:43.677Z,97459.75
2022-11-02T01:22:45.593Z,97459.16
2022-11-02T01:23:47.435Z,97454.75
2022-11-02T01:24:50.051Z,97464.41
2022-11-02T01:25:52.186Z,97463.81
2022-11-02T01:26:53.983Z,97459.97
2022-11-02T01:27:55.743Z,97459.97
2022-11-02T01:28:57.536Z,97456.75
2022-11-02T01:29:59.476Z,97454.34
2022-11-02T01:31:01.442Z,97462.22
2022-11-02T01:32:03.232Z,97462.00
2022-11-02T01:33:08.067Z,97456.75
2022-11-02T01:34:11.286Z,97462.41
2022-11-02T01:35:13.115Z,97464.81
2022-11-02T01:36:16.001Z,97462.81
2022-11-02T01:37:17.820Z,97460.19
2022-11-02T01:38:19.874Z,97460.97
2022-11-02T01:39:21.661Z,97463.19
2022-11-02T01:40:23.575Z,97470.44
2022-11-02T01:41:25.387Z,97466.25
2022-11-02T01:42:28.613Z,97465.63
2022-11-02T01:43:31.906Z,97472.47
2022-11-02T01:44:35.328Z,97469.84
2022-11-02T01:45:37.274Z,97471.28
2022-11-02T01:46:43.025Z,97474.69
2022-11-02T01:47:47.070Z,97476.28
2022-11-02T01:49:12.552Z,97483.16
2022-11-02T01:50:26.040Z,97477.72
2022-11-02T01:51:33.698Z,97476.09
2022-11-02T01:52:36.639Z,97472.88
2022-11-02T01:53:42.772Z,97481.53
2022-11-02T01:54:56.922Z,97477.13
2022-11-02T01:55:59.510Z,97479.75
2022-11-02T01:57:04.402Z,97474.91
2022-11-02T01:58:08.479Z,97480.94
2022-11-02T01:59:15.574Z,97479.75
2022-11-02T02:00:18.820Z,97477.91
2022-11-02T02:01:21.255Z,97478.53
2022-11-02T02:02:24.900Z,97478.34
2022-11-02T02:03:27.966Z,97477.91
2022-11-02T02:04:29.743Z,97483.16
2022-11-02T02:05:34.100Z,97480.53
2022-11-02T02:06:35.936Z,97477.13
2022-11-02T02:07:40.013Z,97480.53
2022-11-02T02:08:43.590Z,97474.28
2022-11-02T02:09:48.680Z,97486.38
2022-11-02T02:10:56.437Z,97480.34
2022-11-02T02:11:58.291Z,97486.38
2022-11-02T02:13:00.248Z,97479.50
2022-11-02T02:14:08.490Z,97480.53
2022-11-02T02:15:11.081Z,97486.38
2022-11-02T02:16:17.716Z,97477.31
2022-11-02T02:17:19.534Z,97477.09
2022-11-02T02:18:25.957Z,97483.34
2022-11-02T02:19:40.040Z,97486.38
2022-11-02T02:20:44.796Z,97483.16
2022-11-02T02:21:58.883Z,97483.97
2022-11-02T02:23:19.382Z,97478.91
2022-11-02T02:24:27.009Z,97485.19
2022-11-02T02:25:47.142Z,97479.94
2022-11-02T02:27:01.060Z,97479.13
2022-11-02T02:28:19.944Z,97472.09
2022-11-02T02:29:28.275Z,97475.31
2022-11-02T02:30:33.920Z,97482.56
2022-11-02T02:31:43.328Z,97478.31
2022-11-02T02:32:56.194Z,97483.56
2022-11-02T02:34:14.824Z,97477.72
2022-11-02T02:35:26.178Z,97481.16
2022-11-02T02:38:02.405Z,97482.16
2022-11-02T02:39:09.214Z,97481.97
2022-11-02T02:40:18.121Z,97476.13
2022-11-02T02:41:25.320Z,97484.78
2022-11-02T02:42:48.814Z,97489.00
2022-11-02T02:43:52.679Z,97478.53
2022-11-02T02:45:20.445Z,97486.78
2022-11-02T02:46:34.510Z,97480.53
2022-11-02T02:47:39.896Z,97477.91
2022-11-02T02:48:44.031Z,97481.13
2022-11-02T02:49:49.347Z,97481.38
2022-11-02T02:50:52.014Z,97485.38
2022-11-02T02:51:56.346Z,97481.75
2022-11-02T02:53:00.261Z,97478.13
2022-11-02T02:54:17.546Z,97480.56
2022-11-02T02:55:23.346Z,97482.94
2022-11-02T02:56:26.469Z,97484.56
2022-11-02T02:57:30.719Z,97486.16
2022-11-02T02:58:37.498Z,97479.94
2022-11-02T02:59:43.890Z,97489.41
2022-11-02T03:00:46.305Z,97483.34
2022-11-02T03:01:48.639Z,97486.16
2022-11-02T03:03:03.894Z,97481.94
2022-11-02T03:04:05.752Z,97488.19
2022-11-02T03:05:27.763Z,97487.38
2022-11-02T03:06:35.698Z,97485.78
2022-11-02T03:07:37.664Z,97487.59
2022-11-02T03:08:41.927Z,97482.34
2022-11-02T03:09:46.916Z,97484.97
2022-11-02T03:10:51.301Z,97483.97
2022-11-02T03:12:01.977Z,97479.72
2022-11-02T03:13:15.757Z,97480.56
2022-11-02T03:14:26.654Z,97481.34
2022-11-02T03:15:37.824Z,97488.19
2022-11-02T03:16:42.415Z,97488.19
2022-11-02T03:17:53.325Z,97489.22
2022-11-02T03:19:11.698Z,97481.75
2022-11-02T03:20:13.483Z,97489.41
2022-11-02T03:21:18.044Z,97487.81
2022-11-02T03:22:38.538Z,97494.66
2022-11-02T03:24:00.882Z,97492.44
2022-11-02T03:25:08.855Z,97488.38
2022-11-02T03:26:27.769Z,97493.63
2022-11-02T03:27:35.988Z,97495.06
2022-11-02T03:28:54.116Z,97497.47
2022-11-02T03:30:05.786Z,97493.84
2022-11-02T03:31:17.183Z,97492.81
2022-11-02T03:32:18.923Z,97496.03
2022-11-02T03:33:26.079Z,97497.88
2022-11-02T03:34:48.765Z,97490.81
2022-11-02T03:36:02.422Z,97501.09
2022-11-02T03:37:11.231Z,97499.50
2022-11-02T03:38:20.082Z,97495.06
2022-11-02T03:39:25.124Z,97500.28
2022-11-02T03:40:30.263Z,97501.88
2022-11-02T03:41:33.426Z,97489.81
2022-11-02T03:42:35.700Z,97498.28
2022-11-02T03:43:39.203Z,97499.06
2022-11-02T03:44:42.043Z,97494.84
2022-11-02T03:45:47.421Z,97496.25
2022-11-02T03:46:51.767Z,97502.28
2022-11-02T03:47:57.633Z,97505.31
2022-11-02T03:49:03.411Z,97500.69
2022-11-02T03:50:10.171Z,97503.13
2022-11-02T03:51:14.061Z,97504.72
2022-11-02T03:52:18.742Z,97513.19
2022-11-02T03:53:23.534Z,97509.34
2022-11-02T03:54:30.118Z,97510.97
2022-11-02T03:55:34.853Z,97513.59
2022-11-02T03:56:38.811Z,97515.19
2022-11-02T03:57:48.006Z,97515.19
2022-11-02T03:58:49.827Z,97518.41
2022-11-02T03:59:51.563Z,97514.38
2022-11-02T04:01:02.439Z,97523.88
2022-11-02T04:02:04.413Z,97520.44
2022-11-02T04:03:08.913Z,97526.88
2022-11-02T04:04:11.120Z,97518.59
2022-11-02T04:05:13.051Z,97526.47
2022-11-02T04:06:15.489Z,97516.00
2022-11-02T04:07:20.134Z,97530.91
2022-11-02T04:08:29.589Z,97519.63
2022-11-02T04:09:31.597Z,97524.88
2022-11-02T04:10:33.455Z,97520.03
2022-11-02T04:11:54.772Z,97518.41
2022-11-02T04:13:14.885Z,97516.00
2022-11-02T04:14:35.570Z,97511.56
2022-11-02T04:15:37.479Z,97516.00
2022-11-02T04:16:39.380Z,97516.19
2022-11-02T04:17:59.881Z,97515.59
2022-11-02T04:19:20.234Z,97516.38
2022-11-02T04:20:21.985Z,97510.72
2022-11-02T04:21:23.787Z,97509.13
2022-11-02T04:22:44.157Z,97515.59
2022-11-02T04:24:04.519Z,97508.72
2022-11-02T04:25:16.054Z,97517.19
2022-11-02T04:26:17.899Z,97521.63
2022-11-02T04:27:21.207Z,97519.19
2022-11-02T04:28:23.381Z,97527.22
2022-11-02T04:29:25.173Z,97529.25
2022-11-02T04:30:26.924Z,97522.38
2022-11-02T04:31:28.740Z,97524.00
2022-11-02T04:32:49.310Z,97525.81
2022-11-02T04:33:51.101Z,97528.44
2022-11-02T04:34:52.965Z,97524.59
2022-11-02T04:35:54.841Z,97526.81
2022-11-02T04:36:56.701Z,97528.00
2022-11-02T04:38:17.241Z,97524.78
2022-11-02T04:39:19.056Z,97523.97
2022-11-02T04:40:20.906Z,97525.97
2022-11-02T04:41:42.516Z,97525.34
2022-11-02T04:42:47.455Z,97525.16
2022-11-02T04:43:49.359Z,97521.69
2022-11-02T04:44:51.216Z,97527.16
2022-11-02T04:45:52.996Z,97525.53
2022-11-02T04:46:54.810Z,97527.72
2022-11-02T04:48:01.220Z,97525.50
2022-11-02T04:49:03.580Z,97530.75
2022-11-02T04:50:05.535Z,97529.91
2022-11-02T04:51:07.289Z,97535.16
2022-11-02T04:52:10.103Z,97527.31
2022-11-02T04:53:12.014Z,97528.13
2022-11-02T04:54:13.906Z,97528.13
2022-11-02T04:55:15.848Z,97530.75
2022-11-02T04:56:17.646Z,97531.53
2022-11-02T04:57:19.404Z,97533.34
2022-11-02T04:58:21.252Z,97538.59
2022-11-02T04:59:23.153Z,97540.97
2022-11-02T05:00:25.160Z,97538.75
2022-11-02T05:01:28.634Z,97542.38
2022-11-02T05:02:30.928Z,97539.94
2022-11-02T05:03:32.767Z,97543.38
2022-11-02T05:04:34.670Z,97539.31
2022-11-02T05:05:36.453Z,97547.16
2022-11-02T05:06:38.325Z,97548.00
2022-11-02T05:07:40.219Z,97552.41
2022-11-02T05:08:42.048Z,97542.78
2022-11-02T05:09:43.832Z,97549.59
2022-11-02T05:10:45.697Z,97546.78
2022-11-02T05:11:49.335Z,97558.84
2022-11-02T05:12:56.690Z,97551.00
2022-11-02T05:13:58.485Z,97552.03
2022-11-02T05:15:00.280Z,97550.81
2022-11-02T05:16:02.101Z,97549.91
2022-11-02T05:17:03.923Z,97554.34
2022-11-02T05:18:06.208Z,97552.53
2022-11-02T05:19:10.839Z,97549.91
2022-11-02T05:20:13.012Z,97550.13
2022-11-02T05:21:14.991Z,97562.59
2022-11-02T05:22:16.814Z,97555.91
2022-11-02T05:23:19.472Z,97560.09
2022-11-02T05:24:21.502Z,97564.31
2022-11-02T05:25:23.429Z,97566.09
2022-11-02T05:26:25.247Z,97558.66
2022-11-02T05:27:27.235Z,97570.94
2022-11-02T05:28:29.842Z,97569.50
2022-11-02T05:29:31.635Z,97570.50
2022-11-02T05:30:33.496Z,97570.50
2022-11-02T05:31:35.307Z,97569.69
2022-11-02T05:32:37.153Z,97575.91
2022-11-02T05:33:38.956Z,97563.88
2022-11-02T05:34:40.794Z,97565.66
2022-11-02T05:35:42.982Z,97568.06
2022-11-02T05:36:44.873Z,97567.09
2022-11-02T05:37:47.418Z,97571.50
2022-11-02T05:38:52.329Z,97569.50
2022-11-02T05:39:54.092Z,97583.38
2022-11-02T05:40:57.462Z,97582.78
2022-11-02T05:41:59.303Z,97588.56
2022-11-02T05:43:01.997Z,97594.00
2022-11-02T05:44:04.120Z,97591.56
2022-11-02T05:45:06.293Z,97592.38
2022-11-02T05:46:08.099Z,97587.94
2022-11-02T05:47:09.913Z,97588.75
2022-11-02T05:48:11.961Z,97594.78
2022-11-02T05:49:13.846Z,97602.25
2022-11-02T05:50:15.654Z,97599.63
2022-11-02T05:51:17.593Z,97599.63
2022-11-02T05:52:19.476Z,97602.44
2022-11-02T05:53:21.400Z,97594.41
2022-11-02T05:54:23.231Z,97596.03
2022-11-02T05:55:25.243Z,97598.63
2022-11-02T05:56:27.080Z,97592.78
2022-11-02T05:57:28.994Z,97597.22
2022-11-02T05:58:32.190Z,97601.44
2022-11-02T05:59:33.935Z,97603.25
2022-11-02T06:00:35.786Z,97599.25
2022-11-02T06:01:37.992Z,97607.28
2022-11-02T06:02:40.776Z,97598.63
2022-11-02T06:03:42.666Z,97603.69
2022-11-02T06:04:44.538Z,97602.84
2022-11-02T06:05:46.706Z,97606.09
2022-11-02T06:06:48.494Z,97610.50
2022-11-02T06:07:50.361Z,97611.72
2022-11-02T06:08:52.235Z,97611.53
2022-11-02T06:09:54.040Z,97610.34
2022-11-02T06:10:55.945Z,97607.31
2022-11-02T06:11:57.881Z,97609.94
2022-11-02T06:13:01.035Z,97616.97
2022-11-02T06:14:04.116Z,97611.56
2022-11-02T06:15:06.077Z,97607.31
2022-11-02T06:16:11.827Z,97620.53
2022-11-02T06:17:13.642Z,97614.06
2022-11-02T06:18:15.487Z,97617.53
2022-11-02T06:19:17.333Z,97613.28
2022-11-02T06:20:19.799Z,97622.94
2022-11-02T06:21:21.621Z,97620.94
2022-11-02T06:22:23.498Z,97617.31
2022-11-02T06:23:27.907Z,97620.53
2022-11-02T06:24:29.807Z,97625.41
2022-11-02T06:25:31.689Z,97621.78
2022-11-02T06:26:33.461Z,97630.22
2022-11-02T06:27:35.638Z,97627.81
2022-11-02T06:28:37.563Z,97627.00
2022-11-02T06:29:39.483Z,97628.81
2022-11-02T06:30:43.232Z,97633.84
2022-11-02T06:31:45.033Z,97636.47
2022-11-02T06:32:47.911Z,97636.47
2022-11-02T06:33:49.667Z,97633.84
2022-11-02T06:34:51.619Z,97637.09
2022-11-02T06:35:54.367Z,97634.28
2022-11-02T06:36:56.175Z,97637.88
2022-11-02T06:37:57.939Z,97637.09
2022-11-02T06:38:59.802Z,97642.31
2022-11-02T06:40:02.298Z,97641.06
2022-11-02T06:41:06.849Z,97644.69
2022-11-02T06:42:08.890Z,97642.69
2022-11-02T06:43:16.677Z,97643.31
2022-11-02T06:44:19.543Z,97646.75
2022-11-02T06:45:21.430Z,97647.53
2022-11-02T06:46:23.254Z,97654.59
2022-11-02T06:47:25.099Z,97653.53
2022-11-02T06:48:31.512Z,97653.53
2022-11-02T06:49:35.171Z,97642.69
2022-11-02T06:50:37.080Z,97647.34
2022-11-02T06:51:39.037Z,97648.97
2022-11-02T06:52:45.048Z,97645.16
2022-11-02T06:53:46.953Z,97651.22
2022-11-02T06:54:48.758Z,97654.44
2022-11-02T06:55:54.568Z,97644.38
2022-11-02T06:56:56.382Z,97651.88
2022-11-02T06:57:58.228Z,97648.88
2022-11-02T06:59:00.019Z,97651.28
2022-11-02T07:00:05.325Z,97655.34
2022-11-02T07:01:08.737Z,97662.81
2022-11-02T07:02:10.844Z,97659.22
2022-11-02T07:03:12.698Z,97654.78
2022-11-02T07:04:14.556Z,97657.41
2022-11-02T07:05:16.460Z,97661.84
2022-11-02T07:06:18.388Z,97660.22
2022-11-02T07:07:20.186Z,97660.94
2022-11-02T07:08:22.566Z,97668.97
2022-11-02T07:09:24.407Z,97668.59
2022-11-02T07:10:27.087Z,97666.44
2022-11-02T07:11:28.990Z,97656.59
2022-11-02T07:12:32.826Z,97665.25
2022-11-02T07:13:34.687Z,97662.63
2022-11-02T07:14:36.444Z,97661.44
2022-11-02T07:15:38.257Z,97656.81
2022-11-02T07:16:40.147Z,97659.06
2022-11-02T07:17:41.994Z,97663.91
2022-11-02T07:18:43.845Z,97659.06
2022-11-02T07:19:45.723Z,97664.72
2022-11-02T07:20:47.608Z,97659.91
2022-11-02T07:21:49.459Z,97659.91
2022-11-02T07:22:55.542Z,97662.91
2022-11-02T07:23:57.359Z,97664.72
2022-11-02T07:24:59.202Z,97665.75
2022-11-02T07:26:05.233Z,97669.59
2022-11-02T07:27:07.230Z,97673.66
2022-11-02T07:28:09.043Z,97674.47
2022-11-02T07:29:10.859Z,97666.78
2022-11-02T07:30:12.746Z,97670.81
2022-11-02T07:31:14.638Z,97660.78
2022-11-02T07:32:16.529Z,97673.69
2022-11-02T07:33:18.288Z,97667.66
2022-11-02T07:34:20.045Z,97674.31
2022-11-02T07:35:22.235Z,97662.81
2022-11-02T07:36:24.132Z,97666.06
2022-11-02T07:37:25.976Z,97657.84
2022-11-02T07:38:28.059Z,97660.44
2022-11-02T07:39:29.875Z,97662.03
2022-11-02T07:40:32.426Z,97664.47
2022-11-02T07:41:34.574Z,97666.91
2022-11-02T07:42:36.828Z,97669.34
2022-11-02T07:43:41.476Z,97667.34
2022-11-02T07:44:45.991Z,97667.13
2022-11-02T07:45:47.843Z,97665.31
2022-11-02T07:46:49.669Z,97661.09
2022-11-02T07:47:52.677Z,97676.41
2022-11-02T07:48:54.550Z,97663.09
2022-11-02T07:49:59.344Z,97663.72
2022-11-02T07:51:01.192Z,97666.34
2022-11-02T07:52:03.025Z,97665.53
2022-11-02T07:53:04.989Z,97669.19
2022-11-02T07:54:07.382Z,97668.16
2022-11-02T07:55:09.304Z,97672.59
2022-11-02T07:56:11.695Z,97666.56
2022-11-02T07:57:13.534Z,97665.78
2022-11-02T07:58:15.397Z,97662.81
2022-11-02T07:59:17.266Z,97660.78
2022-11-02T08:00:19.170Z,97657.16
2022-11-02T08:01:21.187Z,97667.44
2022-11-02T08:02:23.123Z,97661.00
2022-11-02T08:03:25.205Z,97660.63
2022-11-02T08:04:27.036Z,97663.03
2022-11-02T08:05:29.866Z,97665.06
2022-11-02T08:06:31.817Z,97660.66
2022-11-02T08:07:33.622Z,97655.84
2022-11-02T08:08:37.024Z,97659.28
2022-11-02T08:09:39.198Z,97663.72
2022-11-02T08:10:41.407Z,97659.50
2022-11-02T08:11:43.281Z,97671.22
2022-11-02T08:12:45.115Z,97664.94
2022-11-02T08:13:47.013Z,97667.56
2022-11-02T08:14:49.328Z,97661.53
2022-11-02T08:15:51.574Z,97664.16
2022-11-02T08:16:53.412Z,97667.56
2022-11-02T08:18:02.985Z,97658.31
2022-11-02T08:19:05.343Z,97661.94
2022-11-02T08:20:07.824Z,97655.88
2022-11-02T08:21:09.760Z,97653.88
2022-11-02T08:22:11.623Z,97661.34
2022-11-02T08:23:14.116Z,97654.88
2022-11-02T08:24:15.896Z,97662.38
2022-11-02T08:25:17.774Z,97659.31
2022-11-02T08:26:19.525Z,97663.19
2022-11-02T08:27:21.283Z,97649.47
2022-11-02T08:28:24.414Z,97649.09
2022-11-02T08:29:26.681Z,97658.97
2022-11-02T08:30:29.625Z,97659.56
2022-11-02T08:31:31.420Z,97644.84
2022-11-02T08:32:33.227Z,97648.66
2022-11-02T08:33:35.152Z,97643.84
2022-11-02T08:34:36.995Z,97646.25
2022-11-02T08:35:39.447Z,97641.63
2022-11-02T08:36:41.244Z,97644.66
2022-11-02T08:37:43.359Z,97641.63
2022-11-02T08:38:45.685Z,97644.22
2022-11-02T08:39:48.612Z,97646.84
2022-11-02T08:40:50.344Z,97639.81
2022-11-02T08:41:52.290Z,97652.72
2022-11-02T08:42:58.068Z,97635.38
2022-11-02T08:43:59.845Z,97641.03
2022-11-02T08:45:01.807Z,97644.84
2022-11-02T08:46:19.663Z,97645.25
2022-11-02T08:47:22.058Z,97645.44
2022-11-02T08:48:23.957Z,97646.47
2022-11-02T08:49:25.801Z,97642.41
2022-11-02T08:50:29.662Z,97640.19
2022-11-02T08:51:31.542Z,97642.81
2022-11-02T08:52:40.730Z,97643.44
2022-11-02T08:53:47.085Z,97643.63
2022-11-02T08:54:52.160Z,97640.19
2022-11-02T08:55:55.727Z,97644.22
2022-11-02T08:56:57.505Z,97642.41
2022-11-02T08:58:00.101Z,97642.41
2022-11-02T08:59:01.910Z,97634.53
2022-11-02T09:00:03.742Z,97644.63
2022-11-02T09:01:05.838Z,97643.41
2022-11-02T09:02:09.272Z,97643.81
2022-11-02T09:03:16.067Z,97631.31
2022-11-02T09:04:18.030Z,97632.91
2022-11-02T09:05:19.761Z,97637.56
2022-11-02T09:06:21.645Z,97636.53
2022-11-02T09:07:23.473Z,97637.94
2022-11-02T09:08:25.997Z,97643.78
2022-11-02T09:09:27.820Z,97635.72
2022-11-02T09:10:30.828Z,97643.41
2022-11-02T09:11:32.715Z,97636.13
2022-11-02T09:12:34.551Z,97635.72
2022-11-02T09:13:37.942Z,97636.53
2022-11-02T09:14:39.902Z,97632.88
2022-11-02T09:15:42.340Z,97633.47
2022-11-02T09:16:44.188Z,97631.66
2022-11-02T09:17:49.786Z,97642.75
2022-11-02T09:18:52.733Z,97633.69
2022-11-02T09:19:54.505Z,97640.53
2022-11-02T09:20:56.870Z,97636.13
2022-11-02T09:22:00.164Z,97635.28
2022-11-02T09:23:04.376Z,97639.94
2022-11-02T09:24:06.421Z,97641.56
2022-11-02T09:25:08.608Z,97634.28
2022-11-02T09:26:10.393Z,97643.97
2022-11-02T09:27:12.265Z,97639.53
2022-11-02T09:28:15.767Z,97642.97
2022-11-02T09:29:18.860Z,97634.47
2022-11-02T09:30:21.121Z,97634.84
2022-11-02T09:31:23.091Z,97639.72
2022-11-02T09:32:24.879Z,97642.50
2022-11-02T09:33:26.914Z,97638.66
2022-11-02T09:34:28.855Z,97644.31
2022-11-02T09:35:35.536Z,97647.31
2022-11-02T09:36:37.293Z,97636.38
2022-11-02T09:37:39.107Z,97642.63
2022-11-02T09:38:40.895Z,97631.94
2022-11-02T09:39:42.775Z,97636.78
2022-11-02T09:41:01.915Z,97642.44
2022-11-02T09:42:27.102Z,97642.03
2022-11-02T09:43:37.537Z,97635.53
2022-11-02T09:44:48.192Z,97633.50
2022-11-02T09:45:58.592Z,97635.13
2022-11-02T09:47:55.711Z,97638.97
2022-11-02T09:48:30.571Z,97636.69
2022-11-02T09:49:33.137Z,97643.97
2022-11-02T09:50:41.699Z,97636.88
2022-11-02T09:51:49.078Z,97645.16
2022-11-02T09:52:57.458Z,97641.50
2022-11-02T09:54:05.359Z,97640.28
2022-11-02T09:55:13.039Z,97637.38
2022-11-02T09:56:17.550Z,97631.06
2022-11-02T09:57:30.526Z,97638.09
2022-11-02T09:58:41.070Z,97631.81
2022-11-02T09:59:43.030Z,97633.63
2022-11-02T10:00:48.488Z,97636.84
2022-11-02T10:02:09.102Z,97639.06
2022-11-02T10:03:27.594Z,97634.94
2022-11-02T10:04:48.062Z,97640.59
2022-11-02T10:05:55.794Z,97631.47
2022-11-02T10:07:16.211Z,97631.00
2022-11-02T10:08:25.138Z,97630.38
2022-11-02T10:09:35.883Z,97634.78
2022-11-02T10:10:39.232Z,97636.97
2022-11-02T10:11:41.089Z,97630.50
2022-11-02T10:12:43.739Z,97637.34
2022-11-02T10:13:56.864Z,97630.06
2022-11-02T10:14:59.081Z,97636.72
2022-11-02T10:16:04.333Z,97635.69
2022-11-02T10:17:32.523Z,97644.53
2022-11-02T10:18:37.344Z,97630.09
2022-11-02T10:19:41.299Z,97626.56
2022-11-02T10:20:47.228Z,97634.59
2022-11-02T10:21:52.347Z,97634.97
2022-11-02T10:22:57.598Z,97635.19
2022-11-02T10:24:02.453Z,97628.34
2022-11-02T10:25:05.899Z,97636.59
2022-11-02T10:26:13.078Z,97634.31
2022-11-02T10:27:26.674Z,97626.44
2022-11-02T10:28:36.623Z,97629.84
2022-11-02T10:29:45.528Z,97637.53
2022-11-02T10:30:47.372Z,97631.25
2022-11-02T10:31:50.999Z,97634.91
2022-11-02T10:32:55.246Z,97634.13
2022-11-02T10:33:58.391Z,97633.91
2022-11-02T10:35:25.489Z,97631.25
2022-11-02T10:36:26.584Z,97634.63
2022-11-02T10:37:43.769Z,97638.06
2022-11-02T10:39:00.962Z,97644.94
2022-11-02T10:40:08.962Z,97640.72
2022-11-02T10:41:29.561Z,97639.09
2022-11-02T10:42:50.395Z,97629.59
2022-11-02T10:43:58.165Z,97638.88
2022-11-02T10:45:15.308Z,97638.66
2022-11-02T10:46:17.083Z,97636.38
2022-11-02T10:47:30.529Z,97638.00
2022-11-02T10:48:42.734Z,97631.69
2022-11-02T10:49:44.533Z,97634.31
2022-11-02T10:50:46.313Z,97631.47
2022-11-02T10:51:48.113Z,97638.38
2022-11-02T10:52:49.847Z,97633.91
2022-11-02T10:53:52.759Z,97635.28
2022-11-02T10:54:54.938Z,97630.00
2022-11-02T10:55:59.573Z,97629.00
2022-11-02T10:57:09.645Z,97621.69
2022-11-02T10:58:16.043Z,97627.75
2022-11-02T10:59:24.127Z,97619.63
2022-11-02T11:00:28.090Z,97624.66
2022-11-02T11:01:32.344Z,97622.84
2022-11-02T11:02:34.200Z,97626.06
2022-11-02T11:03:53.037Z,97617.13
2022-11-02T11:05:00.022Z,97611.06
2022-11-02T11:06:04.954Z,97616.34
2022-11-02T11:07:08.268Z,97613.69
2022-11-02T11:08:28.315Z,97614.72
2022-11-02T11:09:32.958Z,97614.94
2022-11-02T11:10:38.302Z,97611.50
2022-11-02T11:11:40.154Z,97617.81
2022-11-02T11:12:43.414Z,97618.81
2022-11-02T11:15:48.179Z,97621.44
2022-11-02T11:19:52.550Z,97614.00
2022-11-02T11:20:56.244Z,97623.50
2022-11-02T11:21:58.147Z,97620.06
2022-11-02T11:23:15.901Z,97619.28
2022-11-02T11:24:23.671Z,97613.19
2022-11-02T11:25:28.272Z,97616.41
2022-11-02T11:26:31.628Z,97615.38
2022-11-02T11:27:44.256Z,97608.28
2022-11-02T11:28:56.156Z,97613.13
2022-11-02T11:29:59.189Z,97616.34
2022-11-02T11:31:09.058Z,97616.69
2022-11-02T11:32:19.450Z,97614.66
2022-11-02T11:33:21.915Z,97620.50
2022-11-02T11:34:26.097Z,97620.03
2022-11-02T11:35:35.532Z,97616.97
2022-11-02T11:36:37.357Z,97609.66
2022-11-02T11:37:47.744Z,97615.50
2022-11-02T11:38:50.810Z,97606.34
2022-11-02T11:40:00.666Z,97611.41
2022-11-02T11:41:02.832Z,97616.00
2022-11-02T11:42:05.782Z,97605.81
2022-11-02T11:43:13.637Z,97611.47
2022-11-02T11:44:16.254Z,97611.00
2022-11-02T11:45:20.951Z,97603.66
2022-11-02T11:46:23.317Z,97605.72
2022-11-02T11:47:45.383Z,97603.66
2022-11-02T11:48:49.698Z,97598.34
2022-11-02T11:50:09.194Z,97601.56
2022-11-02T11:51:25.554Z,97594.91
2022-11-02T11:52:32.129Z,97594.28
2022-11-02T11:53:35.760Z,97592.91
2022-11-02T11:54:38.978Z,97599.38
2022-11-02T11:55:51.582Z,97597.00
2022-11-02T11:56:55.214Z,97597.03
2022-11-02T11:58:15.562Z,97590.75
2022-11-02T11:59:21.862Z,97586.97
2022-11-02T12:00:29.973Z,97585.25
2022-11-02T12:01:41.300Z,97588.47
2022-11-02T12:02:44.895Z,97582.97
2022-11-02T12:03:52.002Z,97591.47
2022-11-02T12:05:01.750Z,97582.50
2022-11-02T12:06:22.138Z,97585.25
2022-11-02T12:07:26.929Z,97585.13
2022-11-02T12:08:45.661Z,97586.41
2022-11-02T12:09:57.157Z,97583.88
2022-11-02T12:11:18.771Z,97577.66
2022-11-02T12:12:41.244Z,97583.41
2022-11-02T12:13:55.979Z,97574.09
2022-11-02T12:15:16.437Z,97573.72
2022-11-02T12:16:30.277Z,97573.16
2022-11-02T12:17:37.851Z,97571.56
2022-11-02T12:19:00.474Z,97572.56
2022-11-02T12:20:20.516Z,97573.84
2022-11-02T12:21:22.387Z,97573.63
2022-11-02T12:22:30.501Z,97572.25
2022-11-02T12:23:32.251Z,97574.63
2022-11-02T12:24:43.662Z,97575.34
2022-11-02T12:25:54.396Z,97567.47
2022-11-02T12:27:08.294Z,97572.63
2022-11-02T12:28:28.896Z,97568.50
2022-11-02T12:29:37.051Z,97567.81
2022-11-02T12:30:50.439Z,97563.47
2022-11-02T12:32:01.510Z,97562.63
2022-11-02T12:33:17.985Z,97561.47
2022-11-02T12:34:38.566Z,97560.91
2022-11-02T12:35:49.309Z,97558.16
2022-11-02T12:37:38.630Z,97559.97
2022-11-02T12:38:40.091Z,97556.53
2022-11-02T12:39:54.745Z,97547.84
2022-11-02T12:40:59.354Z,97551.50
2022-11-02T12:42:05.979Z,97545.41
2022-11-02T12:43:07.934Z,97554.38
2022-11-02T12:44:17.938Z,97546.69
2022-11-02T12:45:32.032Z,97543.25
2022-11-02T12:46:42.279Z,97549.75
2022-11-02T12:48:05.594Z,97550.81
2022-11-02T12:49:17.201Z,97547.59
2022-11-02T12:50:24.138Z,97545.16
2022-11-02T12:51:30.954Z,97547.22
2022-11-02T12:52:42.848Z,97539.09
2022-11-02T12:54:01.827Z,97537.47